South Zanesville, Ohio
Current Conditions -  °F | °C
As of 7:53 PM on Friday 28 Nov 2014 (Local Time) from KZZV Reporting Station
Clear Clear  
Wind Chill: 22°   Ceiling: Unl
Heat Index: 29°   Visibility: 10mi
Dew Point: 16°   Wind: 7mph
Humidity: 58%   Direction: 160°SSE
Pressure: 30.2"   Gusts: NA
Location:  39.9406°N, 82.0133°W
Report Text: KZZV 290053Z AUTO 16006KT 10SM CLR M02/M09 A3020 RMK AO2 SLP236 T10171089
Loading
Personal Weather Stations






























Interactive Weather Map New forecast layout! Learn more

10-Day Weather Forecast

Advertisements
Track Severe Weather on mobile